Valders, Wisconsin
Current Conditions -  °F | °C
As of 5:56 PM on Saturday 22 Nov 2014 (Local Time) from KMTW Reporting Station
Overcast Overcast  
Wind Chill: 42°   Ceiling: 800
Heat Index: 42°   Visibility: 7mi
Dew Point: 41°   Wind: 3mph
Humidity: 96%   Direction: 220°SW
Pressure: 29.8"   Gusts: NA
Location:  44.07°N, 87.88°W
Report Text: KMTW 222356Z AUTO 22003KT 7SM OVC008 06/05 A2980 RMK AO2 SLP118 T00560050 10061 20044 53007
Loading
Personal Weather Stations






























Interactive Weather Map New forecast layout! Learn more

10-Day Weather Forecast

Advertisements
Track Severe Weather on mobile